Time;durP1;ratioP1;P1;durP2;ratioP2;P2;SDS_P1;SDS_P2;PMS_P1;PMS_P2;Temp;Humidity;BMP_temperature;BMP_pressure;BME280_temperature;BME280_humidity;BME280_pressure;Samples;Min_cycle;Max_cycle;Signal;HPM_P1;HPM_P2
2022/07/31 00:01:53;;;;;;;;;;;;;;;22.24;100.00;98959.56;4973447;28;19932;-85
2022/07/31 00:04:22;;;;;;;;;;;;;;;22.24;100.00;98958.78;4958098;28;19926;-86
2022/07/31 00:06:50;;;;;;;;;;;;;;;22.36;100.00;98954.75;4958053;28;20014;-86
2022/07/31 00:09:18;;;;;;;;;;;;;;;22.31;100.00;98958.34;4958263;28;19980;-86
2022/07/31 00:11:45;;;;;;;;;;;;;;;22.33;100.00;98956.53;4942186;28;20335;-86
2022/07/31 00:14:12;;;;;;;;;;;;;;;21.96;100.00;98950.00;4942232;28;19949;-85
2022/07/31 00:16:39;;;;;;;;;;;;;;;22.29;100.00;98946.69;4973989;28;19926;-86
2022/07/31 00:19:06;;;;;;;;;;;;;;;22.46;100.00;98936.19;4973906;28;20025;-86
2022/07/31 00:21:35;;;;;;;;;;;;;;;22.40;100.00;98938.22;4958093;28;19975;-85
2022/07/31 00:24:02;;;;;;;;;;;;;;;22.35;100.00;98928.34;4957872;28;19927;-86
2022/07/31 00:26:29;;;;;;;;;;;;;;;22.46;100.00;98927.66;4974844;28;19932;-86
2022/07/31 00:28:56;;;;;;;;;;;;;;;22.22;100.00;98922.28;4941549;28;19926;-86
2022/07/31 00:31:23;;;;;;;;;;;;;;;22.34;100.00;98928.88;4973660;28;19929;-86
2022/07/31 00:33:50;;;;;;;;;;;;;;;22.23;100.00;98921.03;4957577;28;19933;-86
2022/07/31 00:36:17;;;;;;;;;;;;;;;22.60;100.00;98918.19;4941794;28;19926;-86
2022/07/31 00:38:44;;;;;;;;;;;;;;;22.37;100.00;98922.91;4957632;28;19956;-86
2022/07/31 00:41:13;;;;;;;;;;;;;;;22.65;100.00;98926.78;4941310;28;19965;-86
2022/07/31 00:43:40;;;;;;;;;;;;;;;22.58;100.00;98926.47;4973368;28;20035;-86
2022/07/31 00:46:07;;;;;;;;;;;;;;;22.60;100.00;98923.88;4941767;28;19926;-86
2022/07/31 00:48:34;;;;;;;;;;;;;;;22.37;100.00;98925.75;4957381;28;19930;-86
2022/07/31 00:51:01;;;;;;;;;;;;;;;22.26;100.00;98922.84;4957801;28;20326;-85
2022/07/31 00:53:28;;;;;;;;;;;;;;;22.59;100.00;98917.41;4941613;28;19933;-86
2022/07/31 00:55:56;;;;;;;;;;;;;;;22.19;100.00;98911.91;4941288;28;19949;-86
2022/07/31 00:58:24;;;;;;;;;;;;;;;22.35;100.00;98908.44;4957115;28;19933;-86
2022/07/31 01:00:51;;;;;;;;;;;;;;;22.50;100.00;98914.78;4925695;28;20386;-86
2022/07/31 01:03:19;;;;;;;;;;;;;;;22.45;100.00;98904.09;4957329;28;19926;-86
2022/07/31 01:05:46;;;;;;;;;;;;;;;22.12;100.00;98900.22;4957016;28;20304;-85
2022/07/31 01:08:14;;;;;;;;;;;;;;;22.42;100.00;98902.25;4941462;28;19933;-86
2022/07/31 01:10:47;;;;;;;;;;;;;;;22.29;100.00;98898.28;4957271;28;19959;-86
2022/07/31 01:13:31;;;;;;;;;;;;;;;22.19;100.00;98888.41;4973131;28;19938;-86
2022/07/31 01:16:00;;;;;;;;;;;;;;;22.45;100.00;98892.72;4941298;28;20385;-86
2022/07/31 01:18:28;;;;;;;;;;;;;;;22.47;100.00;98880.81;4956828;28;20285;-86
2022/07/31 01:20:59;;;;;;;;;;;;;;;22.40;100.00;98893.44;4972938;28;20385;-87
2022/07/31 01:23:34;;;;;;;;;;;;;;;22.55;100.00;98879.09;4957304;28;20017;-86
2022/07/31 01:26:42;;;;;;;;;;;;;;;22.27;100.00;98873.19;4928154;28;20025;-86
2022/07/31 01:29:15;;;;;;;;;;;;;;;22.10;100.00;98880.81;4957004;28;20321;-86
2022/07/31 01:31:48;;;;;;;;;;;;;;;22.13;100.00;98885.50;4956810;28;19933;-86
2022/07/31 01:34:38;;;;;;;;;;;;;;;22.04;100.00;98885.69;4972841;28;19926;-86
2022/07/31 01:37:11;;;;;;;;;;;;;;;22.23;100.00;98877.56;4940612;28;20401;-87
2022/07/31 01:39:42;;;;;;;;;;;;;;;22.10;100.00;98875.13;4940742;28;20029;-87
2022/07/31 01:42:12;;;;;;;;;;;;;;;21.94;100.00;98872.94;4955078;28;19926;-86
2022/07/31 01:44:42;;;;;;;;;;;;;;;21.89;100.00;98876.50;4956702;28;19927;-86
2022/07/31 01:47:13;;;;;;;;;;;;;;;21.98;100.00;98878.38;4940956;28;19926;-86
2022/07/31 01:49:40;;;;;;;;;;;;;;;22.10;100.00;98875.13;4956454;28;19933;-86
2022/07/31 01:52:08;;;;;;;;;;;;;;;22.04;100.00;98865.78;4972546;28;19972;-87
2022/07/31 01:54:37;;;;;;;;;;;;;;;22.16;100.00;98873.09;4956406;28;19926;-87
2022/07/31 01:57:04;;;;;;;;;;;;;;;22.29;100.00;98867.78;4956127;28;19926;-87
2022/07/31 01:59:38;;;;;;;;;;;;;;;22.14;100.00;98870.00;4955700;28;19927;-87
2022/07/31 02:02:39;;;;;;;;;;;;;;;22.51;100.00;98859.38;4960319;28;19926;-87
2022/07/31 02:05:09;;;;;;;;;;;;;;;22.21;100.00;98858.13;4971680;28;19926;-87
2022/07/31 02:07:39;;;;;;;;;;;;;;;22.16;100.00;98861.72;4940526;28;20316;-87
2022/07/31 02:10:08;;;;;;;;;;;;;;;22.29;100.00;98853.53;4956106;28;20021;-86
2022/07/31 02:12:36;;;;;;;;;;;;;;;22.14;100.00;98852.94;4955974;28;19927;-86
2022/07/31 02:15:06;;;;;;;;;;;;;;;22.08;100.00;98854.97;4956231;28;19941;-87
2022/07/31 02:17:35;;;;;;;;;;;;;;;22.13;100.00;98844.91;4956100;28;19946;-87
2022/07/31 02:20:22;;;;;;;;;;;;;;;22.36;100.00;98843.72;4972097;28;19933;-86
2022/07/31 02:22:53;;;;;;;;;;;;;;;22.49;100.00;98839.16;4955647;28;20021;-87
2022/07/31 02:25:20;;;;;;;;;;;;;;;22.63;100.00;98835.38;4955911;28;19926;-86
2022/07/31 02:27:49;;;;;;;;;;;;;;;22.70;100.00;98828.41;4972205;28;20291;-87
2022/07/31 02:30:17;;;;;;;;;;;;;;;22.40;100.00;98827.22;4971918;28;19926;-87
2022/07/31 02:32:46;;;;;;;;;;;;;;;22.40;100.00;98830.81;4939763;28;19926;-86
2022/07/31 02:35:15;;;;;;;;;;;;;;;22.47;100.00;98818.97;4924055;28;19926;-86
2022/07/31 02:37:44;;;;;;;;;;;;;;;22.54;100.00;98824.19;4939915;28;19926;-87
2022/07/31 02:40:12;;;;;;;;;;;;;;;22.52;100.00;98818.22;4939617;28;20500;-87
2022/07/31 02:42:40;;;;;;;;;;;;;;;22.56;100.00;98818.78;4955722;28;19926;-87
2022/07/31 02:45:08;;;;;;;;;;;;;;;22.62;100.00;98808.19;4955811;28;19965;-87
2022/07/31 02:47:36;;;;;;;;;;;;;;;22.38;100.00;98807.78;4955837;28;19969;-87
2022/07/31 02:50:08;;;;;;;;;;;;;;;22.44;100.00;98796.44;4940386;28;19986;-87
2022/07/31 02:52:37;;;;;;;;;;;;;;;22.29;100.00;98801.53;4971513;28;20382;-86
2022/07/31 02:55:04;;;;;;;;;;;;;;;22.48;100.00;98792.06;4939267;28;20359;-87
2022/07/31 02:57:32;;;;;;;;;;;;;;;22.47;100.00;98798.25;4955501;28;19927;-86
2022/07/31 03:00:21;;;;;;;;;;;;;;;22.44;100.00;98794.38;4971556;28;19926;-87
2022/07/31 03:02:51;;;;;;;;;;;;;;;22.55;100.00;98785.88;4955764;28;19926;-87
2022/07/31 03:05:18;;;;;;;;;;;;;;;22.61;100.00;98788.78;4955140;28;19926;-87
2022/07/31 03:07:47;;;;;;;;;;;;;;;22.33;100.00;98780.06;4955540;28;20080;-87
2022/07/31 03:10:14;;;;;;;;;;;;;;;22.29;100.00;98782.41;4939430;28;20397;-87
2022/07/31 03:12:54;;;;;;;;;;;;;;;22.24;100.00;98783.13;4971410;28;20024;-87
2022/07/31 03:15:24;;;;;;;;;;;;;;;22.25;100.00;98783.91;4939289;28;19926;-87
2022/07/31 03:17:52;;;;;;;;;;;;;;;21.92;100.00;98784.47;4939594;28;20416;-87
2022/07/31 03:20:29;;;;;;;;;;;;;;;22.12;100.00;98786.41;4971457;28;19934;-87
2022/07/31 03:22:57;;;;;;;;;;;;;;;22.34;100.00;98780.88;4923428;28;19927;-87
2022/07/31 03:25:25;;;;;;;;;;;;;;;22.28;100.00;98777.22;4955066;28;19926;-86
2022/07/31 03:27:52;;;;;;;;;;;;;;;22.45;100.00;98781.69;4955098;28;20011;-86
2022/07/31 03:30:23;;;;;;;;;;;;;;;22.47;100.00;98784.03;4955131;28;19926;-87
2022/07/31 03:32:53;;;;;;;;;;;;;;;22.52;100.00;98775.53;4971390;28;20370;-87
2022/07/31 03:35:21;;;;;;;;;;;;;;;22.28;100.00;98772.28;4955595;28;19926;-86
2022/07/31 03:37:49;;;;;;;;;;;;;;;22.39;100.00;98765.88;4926713;28;20305;-86
2022/07/31 03:40:16;;;;;;;;;;;;;;;22.45;100.00;98770.31;4942611;28;19933;-87
2022/07/31 03:42:43;;;;;;;;;;;;;;;22.35;100.00;98771.03;4942805;28;20278;-87
2022/07/31 03:45:11;;;;;;;;;;;;;;;22.36;100.00;98767.66;4942691;28;19926;-86
2022/07/31 03:47:38;;;;;;;;;;;;;;;22.51;100.00;98762.59;4942615;28;19933;-86
2022/07/31 03:50:06;;;;;;;;;;;;;;;22.63;100.00;98767.03;4958002;28;19930;-87
2022/07/31 03:52:34;;;;;;;;;;;;;;;22.58;100.00;98767.03;4926638;28;19926;-87
2022/07/31 03:55:02;;;;;;;;;;;;;;;22.46;100.00;98762.53;4958174;28;19926;-87
2022/07/31 03:57:32;;;;;;;;;;;;;;;22.27;100.00;98759.34;4958418;28;19976;-87
2022/07/31 04:00:01;;;;;;;;;;;;;;;22.47;100.00;98753.50;4958107;28;19927;-87
2022/07/31 04:02:31;;;;;;;;;;;;;;;22.51;100.00;98754.06;4958735;28;19927;-86
2022/07/31 04:05:22;;;;;;;;;;;;;;;22.21;100.00;98749.22;4957948;28;20393;-86
2022/07/31 04:07:49;;;;;;;;;;;;;;;22.35;100.00;98749.03;4958173;28;20020;-87
2022/07/31 04:10:16;;;;;;;;;;;;;;;22.26;100.00;98746.41;4958165;28;19933;-86
2022/07/31 04:12:44;;;;;;;;;;;;;;;22.33;100.00;98751.63;4958400;28;19933;-86
2022/07/31 04:15:13;;;;;;;;;;;;;;;22.55;100.00;98746.03;4942398;28;19926;-87
2022/07/31 04:17:40;;;;;;;;;;;;;;;22.43;100.00;98752.94;4942133;28;20072;-87
2022/07/31 04:20:10;;;;;;;;;;;;;;;22.47;100.00;98742.09;4958131;28;19927;-87
2022/07/31 04:22:37;;;;;;;;;;;;;;;22.09;100.00;98756.94;4957938;28;19932;-86
2022/07/31 04:25:09;;;;;;;;;;;;;;;22.27;100.00;98747.19;4958628;28;19926;-86
2022/07/31 04:27:52;;;;;;;;;;;;;;;21.72;100.00;98753.28;4957771;28;19973;-86
2022/07/31 04:30:20;;;;;;;;;;;;;;;21.63;100.00;98747.03;4957866;28;19927;-87
2022/07/31 04:32:47;;;;;;;;;;;;;;;21.73;100.00;98749.19;4973495;28;19937;-87
2022/07/31 04:35:19;;;;;;;;;;;;;;;22.05;100.00;98749.91;4957514;28;19926;-86
2022/07/31 04:37:46;;;;;;;;;;;;;;;22.10;100.00;98749.94;4941729;28;19926;-87
2022/07/31 04:40:14;;;;;;;;;;;;;;;21.78;100.00;98739.91;4973753;28;20064;-87
2022/07/31 04:42:41;;;;;;;;;;;;;;;21.86;100.00;98743.84;4941553;28;19930;-87
2022/07/31 04:45:09;;;;;;;;;;;;;;;21.93;100.00;98749.06;4941707;28;19926;-88
2022/07/31 04:47:37;;;;;;;;;;;;;;;22.02;100.00;98745.25;4957278;28;19933;-87
2022/07/31 04:50:04;;;;;;;;;;;;;;;22.08;100.00;98746.84;4941563;28;20271;-87
2022/07/31 04:52:31;;;;;;;;;;;;;;;21.98;100.00;98742.63;4957357;28;19926;-87
2022/07/31 04:55:04;;;;;;;;;;;;;;;22.27;100.00;98738.63;4973453;28;19927;-87
2022/07/31 04:57:31;;;;;;;;;;;;;;;22.42;100.00;98742.84;4957242;28;19930;-87
2022/07/31 04:59:58;;;;;;;;;;;;;;;22.17;100.00;98743.00;4957147;28;19926;-87
2022/07/31 05:02:31;;;;;;;;;;;;;;;22.21;100.00;98732.16;4957260;28;20377;-87
2022/07/31 05:05:00;;;;;;;;;;;;;;;22.22;100.00;98740.16;4957448;28;19926;-87
2022/07/31 05:07:34;;;;;;;;;;;;;;;22.32;100.00;98735.06;4941443;28;19926;-88
2022/07/31 05:10:06;;;;;;;;;;;;;;;22.51;100.00;98739.03;4958007;28;19967;-87
2022/07/31 05:12:34;;;;;;;;;;;;;;;22.56;100.00;98729.72;4956972;28;20549;-87
2022/07/31 05:15:01;;;;;;;;;;;;;;;22.54;100.00;98744.47;4973143;28;19926;-83
2022/07/31 05:17:29;;;;;;;;;;;;;;;22.58;100.00;98745.00;4956909;28;19957;-85
2022/07/31 05:20:15;;;;;;;;;;;;;;;22.32;100.00;98744.38;4959499;28;20005;-85
2022/07/31 05:23:02;;;;;;;;;;;;;;;21.84;100.00;98735.03;4941381;28;19926;-85
2022/07/31 05:25:51;;;;;;;;;;;;;;;21.71;100.00;98746.06;4956887;28;19927;-85
2022/07/31 05:28:18;;;;;;;;;;;;;;;21.84;100.00;98737.88;4925219;28;19926;-85
2022/07/31 05:30:46;;;;;;;;;;;;;;;21.54;100.00;98742.28;4956786;28;19930;-85
2022/07/31 05:33:13;;;;;;;;;;;;;;;21.66;100.00;98738.25;4972732;28;19958;-85
2022/07/31 05:35:40;;;;;;;;;;;;;;;21.99;100.00;98738.50;4956695;28;19926;-85
2022/07/31 05:38:07;;;;;;;;;;;;;;;21.98;100.00;98747.53;4972600;28;20412;-85
2022/07/31 05:40:49;;;;;;;;;;;;;;;22.07;100.00;98738.81;4956725;28;19933;-85
2022/07/31 05:43:51;;;;;;;;;;;;;;;22.13;100.00;98748.16;5025354;28;20006;-85
2022/07/31 05:46:23;;;;;;;;;;;;;;;22.30;100.00;98741.25;5019964;28;20408;-85
2022/07/31 05:48:50;;;;;;;;;;;;;;;22.20;100.00;98747.66;4987853;28;19952;-85
2022/07/31 05:51:17;;;;;;;;;;;;;;;22.46;100.00;98742.63;5003814;28;20317;-85
2022/07/31 05:53:44;;;;;;;;;;;;;;;22.31;100.00;98742.81;5053381;28;20058;-85
2022/07/31 05:56:32;;;;;;;;;;;;;;;22.05;100.00;98747.88;4986716;28;19925;-85
2022/07/31 05:59:00;;;;;;;;;;;;;;;22.28;100.00;98749.50;5036029;28;19924;-85
2022/07/31 06:01:27;;;;;;;;;;;;;;;22.23;100.00;98747.44;5003811;28;19960;-85
2022/07/31 06:03:55;;;;;;;;;;;;;;;22.00;100.00;98745.75;5004439;28;20027;-85
2022/07/31 06:06:28;;;;;;;;;;;;;;;21.94;100.00;98739.25;5036575;28;19936;-84
2022/07/31 06:08:55;;;;;;;;;;;;;;;21.92;100.00;98756.03;5020485;28;19924;-83
2022/07/31 06:11:24;;;;;;;;;;;;;;;21.85;100.00;98745.16;5036513;28;19988;-83
2022/07/31 06:13:51;;;;;;;;;;;;;;;21.81;100.00;98755.97;5036692;28;19952;-83
2022/07/31 06:16:25;;;;;;;;;;;;;;;21.50;100.00;98747.44;5036188;28;19960;-84
2022/07/31 06:18:52;;;;;;;;;;;;;;;21.94;100.00;98753.47;4981167;28;19926;-83
2022/07/31 06:21:19;;;;;;;;;;;;;;;22.21;100.00;98755.69;4924236;28;20336;-83
2022/07/31 06:23:45;;;;;;;;;;;;;;;21.58;100.00;98757.09;4973328;28;19945;-83
2022/07/31 06:26:25;;;;;;;;;;;;;;;21.39;100.00;98753.03;4956446;28;19941;-83
2022/07/31 06:28:52;;;;;;;;;;;;;;;21.42;100.00;98760.56;4971853;28;19930;-85
2022/07/31 06:31:19;;;;;;;;;;;;;;;21.52;100.00;98766.84;4940323;28;19933;-85
2022/07/31 06:33:48;;;;;;;;;;;;;;;21.67;100.00;98761.78;4940284;28;19926;-84
2022/07/31 06:36:18;;;;;;;;;;;;;;;21.41;100.00;98770.38;4955739;28;19926;-84
2022/07/31 06:39:05;;;;;;;;;;;;;;;21.58;100.00;98761.97;4971870;28;19926;-84
2022/07/31 06:41:45;;;;;;;;;;;;;;;21.61;100.00;98770.28;4972993;28;19926;-85
2022/07/31 06:44:33;;;;;;;;;;;;;;;21.77;100.00;98774.53;4970434;28;20478;-84
2022/07/31 06:47:20;;;;;;;;;;;;;;;22.09;100.00;98774.00;4958832;28;20285;-84
2022/07/31 06:50:23;;;;;;;;;;;;;;;22.20;100.00;98779.75;4972282;28;19933;-85
2022/07/31 06:53:03;;;;;;;;;;;;;;;22.28;100.00;98772.28;4957503;28;19927;-85
2022/07/31 06:55:40;;;;;;;;;;;;;;;22.04;100.00;98780.44;4940066;28;19926;-81
2022/07/31 06:58:32;;;;;;;;;;;;;;;22.06;100.00;98772.16;4972874;28;19932;-81
2022/07/31 07:00:59;;;;;;;;;;;;;;;21.83;100.00;98778.22;4956103;28;19933;-81
2022/07/31 07:03:26;;;;;;;;;;;;;;;21.82;100.00;98777.44;4955876;28;20370;-81
2022/07/31 07:05:54;;;;;;;;;;;;;;;;;;4955366;28;19933;-85
2022/07/31 07:08:21;;;;;;;;;;;;;;;22.24;100.00;98771.75;4971490;28;19926;-84
2022/07/31 07:10:49;;;;;;;;;;;;;;;21.78;100.00;98774.03;4954270;28;19987;-84
2022/07/31 07:13:36;;;;;;;;;;;;;;;22.24;100.00;98771.75;4971149;28;19949;-84
2022/07/31 07:16:03;;;;;;;;;;;;;;;22.17;100.00;98766.56;4971168;28;20389;-84
2022/07/31 07:18:30;;;;;;;;;;;;;;;22.48;100.00;98780.66;4971319;28;19941;-85
2022/07/31 07:20:57;;;;;;;;;;;;;;;22.52;100.00;98777.63;4955338;28;19936;-85
2022/07/31 07:23:25;;;;;;;;;;;;;;;22.69;100.00;98775.59;4939408;28;19926;-85
2022/07/31 07:26:30;;;;;;;;;;;;;;;22.96;100.00;98775.69;5001125;28;19969;-84
2022/07/31 07:29:01;;;;;;;;;;;;;;;22.86;100.00;98774.38;4979731;28;19968;-83
2022/07/31 07:31:29;;;;;;;;;;;;;;;22.87;100.00;98775.16;4996163;28;20435;-83
2022/07/31 07:33:57;;;;;;;;;;;;;;;22.51;100.00;98776.03;4979841;28;19956;-87
2022/07/31 07:36:25;;;;;;;;;;;;;;;22.32;100.00;98778.53;4979974;28;19965;-85
2022/07/31 07:38:56;;;;;;;;;;;;;;;22.63;100.00;98780.47;4979963;28;20361;-85
2022/07/31 07:41:24;;;;;;;;;;;;;;;22.80;100.00;98779.25;4995836;28;19973;-86
2022/07/31 07:43:51;;;;;;;;;;;;;;;22.62;100.00;98785.41;4979725;28;19926;-86
2022/07/31 07:46:21;;;;;;;;;;;;;;;22.99;100.00;98785.28;5011808;28;19925;-86
2022/07/31 07:48:51;;;;;;;;;;;;;;;22.90;100.00;98788.38;4995687;28;19926;-87
2022/07/31 07:51:32;;;;;;;;;;;;;;;22.96;100.00;98789.91;4994700;28;19929;-86
2022/07/31 07:54:14;;;;;;;;;;;;;;;23.12;100.00;98782.72;4948787;28;20483;-86
2022/07/31 07:56:59;;;;;;;;;;;;;;;23.63;100.00;98795.75;4982116;28;19926;-87
2022/07/31 07:59:46;;;;;;;;;;;;;;;23.39;100.00;98790.53;4956567;28;19926;-87
2022/07/31 08:02:45;;;;;;;;;;;;;;;23.59;100.00;98792.38;4954478;28;19933;-87
2022/07/31 08:05:14;;;;;;;;;;;;;;;23.41;100.00;98793.66;4938625;28;20275;-87
2022/07/31 08:07:42;;;;;;;;;;;;;;;23.34;100.00;98788.47;4970518;28;19932;-86
2022/07/31 08:10:40;;;;;;;;;;;;;;;23.23;100.00;98797.00;4954454;28;19933;-84
2022/07/31 08:13:10;;;;;;;;;;;;;;;23.62;100.00;98802.75;4954471;28;19976;-84
2022/07/31 08:16:04;;;;;;;;;;;;;;;23.17;100.00;98791.25;4963590;28;19926;-85
2022/07/31 08:18:34;;;;;;;;;;;;;;;22.64;100.00;98788.50;4954266;28;19926;-85
2022/07/31 08:21:02;;;;;;;;;;;;;;;22.70;100.00;98799.94;4951317;28;19969;-85
2022/07/31 08:23:29;;;;;;;;;;;;;;;21.91;100.00;98805.69;4923064;29;19937;-85
2022/07/31 08:25:57;;;;;;;;;;;;;;;22.76;100.00;98804.38;4938596;28;19927;-86
2022/07/31 08:28:25;;;;;;;;;;;;;;;22.69;100.00;98807.69;4954299;29;19934;-84
2022/07/31 08:30:53;;;;;;;;;;;;;;;23.31;100.00;98817.25;5005413;28;19927;-84
2022/07/31 08:33:22;;;;;;;;;;;;;;;23.33;100.00;98808.94;4938898;29;19954;-85
2022/07/31 08:35:54;;;;;;;;;;;;;;;23.23;100.00;98816.16;4954488;28;20019;-85
2022/07/31 08:38:21;;;;;;;;;;;;;;;23.00;100.00;98809.63;4922913;29;19926;-85
2022/07/31 08:41:10;;;;;;;;;;;;;;;22.71;100.00;98813.66;4955357;29;19930;-85
2022/07/31 08:43:38;;;;;;;;;;;;;;;22.89;100.00;98820.97;4938473;29;20013;-84
2022/07/31 08:46:06;;;;;;;;;;;;;;;23.07;100.00;98821.31;4938235;29;19927;-85
2022/07/31 08:48:38;;;;;;;;;;;;;;;23.57;100.00;98815.69;4907496;29;20400;-85
2022/07/31 08:51:05;;;;;;;;;;;;;;;23.99;100.00;98821.16;4922503;29;20421;-84
2022/07/31 08:53:53;;;;;;;;;;;;;;;23.72;100.00;98819.06;4924817;28;20466;-84
2022/07/31 08:56:21;;;;;;;;;;;;;;;23.47;100.00;98825.03;4955140;28;19933;-85
2022/07/31 08:58:49;;;;;;;;;;;;;;;23.02;100.00;98816.34;4938024;29;19938;-85
2022/07/31 09:01:16;;;;;;;;;;;;;;;22.76;100.00;98841.41;4954135;28;19958;-84
2022/07/31 09:03:44;;;;;;;;;;;;;;;23.04;100.00;98839.41;4922554;29;19980;-84
2022/07/31 09:06:14;;;;;;;;;;;;;;;22.66;100.00;98828.66;4922098;29;19927;-84
2022/07/31 09:08:41;;;;;;;;;;;;;;;22.91;100.00;98836.28;4937711;29;20302;-84
2022/07/31 09:11:13;;;;;;;;;;;;;;;22.57;100.00;98833.78;4953664;28;19926;-85
2022/07/31 09:13:51;;;;;;;;;;;;;;;22.89;100.00;98844.56;4939580;29;20397;-85
2022/07/31 09:16:43;;;;;;;;;;;;;;;23.07;100.00;98834.75;4921925;28;19926;-84
2022/07/31 09:19:11;;;;;;;;;;;;;;;23.55;100.00;98837.47;4937775;29;19927;-84
2022/07/31 09:21:40;;;;;;;;;;;;;;;23.69;100.00;98825.81;4922016;29;20297;-85
2022/07/31 09:24:09;;;;;;;;;;;;;;;23.53;100.00;98822.97;4953353;28;20344;-85
2022/07/31 09:26:36;;;;;;;;;;;;;;;23.77;100.00;98829.72;4937524;28;20401;-85
2022/07/31 09:29:10;;;;;;;;;;;;;;;23.57;100.00;98834.91;4922238;29;19933;-85
2022/07/31 09:31:40;;;;;;;;;;;;;;;23.90;100.00;98837.75;4937577;29;19926;-85
2022/07/31 09:34:28;;;;;;;;;;;;;;;23.96;100.00;98849.97;4953899;28;20385;-83
2022/07/31 09:37:11;;;;;;;;;;;;;;;23.82;100.00;98840.34;4953241;29;19934;-83
2022/07/31 09:39:57;;;;;;;;;;;;;;;23.57;100.00;98849.16;4963159;28;20378;-84
2022/07/31 09:42:47;;;;;;;;;;;;;;;23.88;100.00;98848.91;4972045;28;19926;-84
2022/07/31 09:45:20;;;;;;;;;;;;;;;23.74;100.00;98856.44;4966550;28;20012;-84
2022/07/31 09:48:11;;;;;;;;;;;;;;;23.94;100.00;98861.09;5016160;28;19934;-84
2022/07/31 09:50:59;;;;;;;;;;;;;;;23.58;100.00;98867.81;4965975;28;19926;-87
2022/07/31 09:53:40;;;;;;;;;;;;;;;22.98;100.00;98872.81;4938782;28;19969;-86
2022/07/31 09:56:32;;;;;;;;;;;;;;;22.73;100.00;98882.28;4921756;29;19926;-87
2022/07/31 09:59:00;;;;;;;;;;;;;;;23.17;100.00;98893.09;4936732;29;19941;-88
2022/07/31 10:01:28;;;;;;;;;;;;;;;22.96;100.00;98886.78;4921299;29;20382;-88
2022/07/31 10:03:58;;;;;;;;;;;;;;;23.05;100.00;98891.50;4937199;29;19980;-88
2022/07/31 10:06:26;;;;;;;;;;;;;;;23.24;100.00;98898.31;4921085;28;20294;-85
2022/07/31 10:08:54;;;;;;;;;;;;;;;23.75;100.00;98897.91;4921448;29;19927;-83
2022/07/31 10:11:24;;;;;;;;;;;;;;;23.61;100.00;98901.00;4953212;29;19949;-83
2022/07/31 10:14:17;;;;;;;;;;;;;;;22.32;100.00;98915.16;4952717;29;19926;-83
2022/07/31 10:16:45;;;;;;;;;;;;;;;22.94;100.00;98909.31;4953392;29;19942;-82
2022/07/31 10:19:35;;;;;;;;;;;;;;;22.98;100.00;98903.38;4924042;29;19926;-82
2022/07/31 10:22:42;;;;;;;;;;;;;;;22.63;100.00;98917.94;4946852;29;19926;-83
2022/07/31 10:25:14;;;;;;;;;;;;;;;22.91;100.00;98927.44;4953024;29;19926;-83
2022/07/31 10:27:41;;;;;;;;;;;;;;;22.67;100.00;98926.25;4936857;29;20317;-83
2022/07/31 10:30:12;;;;;;;;;;;;;;;22.62;100.00;98927.78;4948390;28;19930;-82
2022/07/31 10:32:44;;;;;;;;;;;;;;;22.97;100.00;98924.59;4968664;28;19926;-83
2022/07/31 10:35:27;;;;;;;;;;;;;;;22.77;100.00;98927.59;4969866;28;20343;-82
2022/07/31 10:38:26;;;;;;;;;;;;;;;22.72;100.00;98934.84;4968138;28;20473;-82
2022/07/31 10:41:02;;;;;;;;;;;;;;;21.94;100.00;98940.41;4976269;28;19929;-85
2022/07/31 10:43:38;;;;;;;;;;;;;;;22.13;100.00;98947.34;4991036;28;19937;-85
2022/07/31 10:46:24;;;;;;;;;;;;;;;22.36;100.00;98944.16;4974840;28;20396;-84
2022/07/31 10:49:03;;;;;;;;;;;;;;;22.62;100.00;98949.78;4974754;28;19926;-79
2022/07/31 10:51:50;;;;;;;;;;;;;;;22.32;100.00;98948.50;4990993;28;19948;-80
2022/07/31 10:54:49;;;;;;;;;;;;;;;22.09;100.00;98950.41;4997434;28;19926;-79
2022/07/31 10:57:43;;;;;;;;;;;;;;;21.79;100.00;98943.41;4989762;28;19926;-79
2022/07/31 11:00:30;;;;;;;;;;;;;;;22.17;100.00;98960.03;4992503;28;19936;-79
2022/07/31 11:03:19;;;;;;;;;;;;;;;21.72;100.00;98960.84;4992333;28;20057;-80
2022/07/31 11:06:11;;;;;;;;;;;;;;;21.86;100.00;98960.00;4992494;28;20380;-92
2022/07/31 11:09:20;;;;;;;;;;;;;;;21.96;100.00;98961.38;4917402;29;19927;-82
2022/07/31 11:11:55;;;;;;;;;;;;;;;22.48;100.00;98962.88;4912367;29;19931;-83
2022/07/31 11:14:46;;;;;;;;;;;;;;;22.98;100.00;98961.13;4912526;29;19977;-85
2022/07/31 11:17:33;;;;;;;;;;;;;;;23.46;100.00;98960.34;4897283;29;19985;-86
2022/07/31 11:20:24;;;;;;;;;;;;;;;22.87;100.00;98954.63;4909209;29;19931;-81
2022/07/31 11:22:52;;;;;;;;;;;;;;;22.35;100.00;98945.44;4897205;29;19927;-82
2022/07/31 11:25:21;;;;;;;;;;;;;;;22.29;100.00;98956.00;4912896;29;20731;-84
2022/07/31 11:27:58;;;;;;;;;;;;;;;;;;;;;
2022/07/31 11:30:57;;;;;;;;;;;;;;;22.34;100.00;98963.78;4877218;29;19933;-81
2022/07/31 11:33:28;;;;;;;;;;;;;;;22.46;100.00;98976.81;4912660;29;19931;-85
2022/07/31 11:36:03;;;;;;;;;;;;;;;22.82;100.00;98976.09;4897045;29;20029;-85
2022/07/31 11:38:31;;;;;;;;;;;;;;;22.94;100.00;98974.84;4896900;29;19927;-84
2022/07/31 11:40:58;;;;;;;;;;;;;;;23.22;100.00;98974.22;4896356;29;19927;-85
2022/07/31 11:43:25;;;;;;;;;;;;;;;23.31;100.00;98965.47;4908942;28;20489;-88
2022/07/31 11:45:53;;;;;;;;;;;;;;;23.69;100.00;98967.66;4878285;29;19927;-87
2022/07/31 11:48:22;;;;;;;;;;;;;;;24.19;100.00;98977.88;4904774;29;19927;-88
2022/07/31 11:50:52;;;;;;;;;;;;;;;24.45;100.00;98978.41;4935478;29;19934;-88
2022/07/31 11:53:20;;;;;;;;;;;;;;;23.74;100.00;98975.44;4951356;28;19927;-88
2022/07/31 11:55:48;;;;;;;;;;;;;;;23.81;100.00;98981.41;4933046;29;20092;-88
2022/07/31 11:58:16;;;;;;;;;;;;;;;23.81;100.00;98983.53;4936027;29;20325;-88
2022/07/31 12:00:51;;;;;;;;;;;;;;;23.44;100.00;98985.72;4936169;29;19934;-89
2022/07/31 12:03:19;;;;;;;;;;;;;;;22.94;100.00;98991.94;4952928;29;19930;-87
2022/07/31 12:05:47;;;;;;;;;;;;;;;23.32;100.00;98984.91;4937856;28;20366;-88
2022/07/31 12:08:15;;;;;;;;;;;;;;;22.86;100.00;98996.56;4953944;29;19933;-88
2022/07/31 12:10:44;;;;;;;;;;;;;;;22.66;100.00;98990.97;4953667;29;20382;-88
2022/07/31 12:13:12;;;;;;;;;;;;;;;23.33;100.00;99000.72;4938130;29;19926;-89
2022/07/31 12:16:04;;;;;;;;;;;;;;;24.05;100.00;98996.03;4938140;28;19957;-89
2022/07/31 12:18:43;;;;;;;;;;;;;;;23.37;100.00;99003.31;4953710;29;19934;-88
2022/07/31 12:21:11;;;;;;;;;;;;;;;23.56;100.00;99001.56;4954891;29;20007;-86
2022/07/31 12:23:42;;;;;;;;;;;;;;;22.85;100.00;99009.25;4953687;29;19926;-89
2022/07/31 12:26:20;;;;;;;;;;;;;;;23.39;100.00;99012.13;4953705;29;20025;-88
2022/07/31 12:29:07;;;;;;;;;;;;;;;23.54;100.00;99007.03;4953699;29;19980;-88
2022/07/31 12:31:51;;;;;;;;;;;;;;;23.45;100.00;99022.28;4953438;29;19976;-87
2022/07/31 12:34:24;;;;;;;;;;;;;;;23.22;100.00;99023.44;4953430;29;20422;-88
2022/07/31 12:37:02;;;;;;;;;;;;;;;23.78;100.00;99018.78;4938051;28;19926;-88
2022/07/31 12:39:31;;;;;;;;;;;;;;;23.19;100.00;99027.28;4953573;29;19927;-88
2022/07/31 12:41:58;;;;;;;;;;;;;;;24.22;100.00;99016.03;4937479;29;19926;-88
2022/07/31 12:44:25;;;;;;;;;;;;;;;24.49;100.00;99016.03;4953560;28;19934;-90
2022/07/31 12:46:52;;;;;;;;;;;;;;;24.54;100.00;99020.97;4937351;29;19927;-88
2022/07/31 12:49:19;;;;;;;;;;;;;;;24.18;100.00;99026.94;4937530;29;20021;-89
2022/07/31 12:51:48;;;;;;;;;;;;;;;24.49;100.00;99021.75;4953528;28;20009;-89
2022/07/31 12:54:16;;;;;;;;;;;;;;;24.45;100.00;99020.47;4937296;28;20003;-88
2022/07/31 12:56:43;;;;;;;;;;;;;;;24.27;100.00;99029.53;4953191;29;19933;-89
2022/07/31 12:59:11;;;;;;;;;;;;;;;24.51;100.00;99029.81;4921561;28;19927;-88
2022/07/31 13:01:43;;;;;;;;;;;;;;;25.02;100.00;99031.34;4937767;29;19934;-89
2022/07/31 13:04:10;;;;;;;;;;;;;;;24.92;100.00;99027.19;4953067;29;19945;-89
2022/07/31 13:06:38;;;;;;;;;;;;;;;24.87;100.00;99028.75;4937157;29;20302;-89
2022/07/31 13:09:05;;;;;;;;;;;;;;;24.78;100.00;99029.03;4936007;29;20338;-89